Terminal Aerodrome Forecast
Issued by NWS

Home | Current Version | Previous Version | Text Only | Print | Product List | Glossary On
Versions: 1 2 3 4 5 6 7 8 9 10 11 12 13 14 15
000
FTUS45 KRIW 231738
TAFCPR
TAF
KCPR 231738Z 2318/2418 04011KT P6SM -RA OVC004
     FM231900 04011G17KT 4SM -RA SCT006 BKN009
     FM240400 03012G19KT 3SM -SNRA SCT003 BKN007=

USA.gov is the U.S. government's official web portal to all federal, state and local government web resources and services.